createdAt,value
2016-10-02T00:00:30.212Z,0
2016-10-02T00:01:30.214Z,0
2016-10-02T00:02:30.227Z,0
2016-10-02T00:03:30.208Z,0
2016-10-02T00:04:30.190Z,0
2016-10-02T00:05:30.189Z,0
2016-10-02T00:06:30.183Z,0
2016-10-02T00:07:30.180Z,0
2016-10-02T00:09:31.928Z,0
2016-10-02T00:10:46.041Z,0
2016-10-02T00:11:45.391Z,0
2016-10-02T00:12:30.167Z,0
2016-10-02T00:13:30.151Z,0
2016-10-02T00:14:30.212Z,0
2016-10-02T00:15:30.157Z,0
2016-10-02T00:16:30.151Z,0
2016-10-02T00:17:31.507Z,0
2016-10-02T00:18:45.446Z,0
2016-10-02T00:20:31.181Z,0
2016-10-02T00:21:45.045Z,0
2016-10-02T00:22:31.074Z,0
2016-10-02T00:23:30.130Z,0
2016-10-02T00:24:30.114Z,0
2016-10-02T00:25:30.116Z,0
2016-10-02T00:26:30.104Z,0
2016-10-02T00:27:30.098Z,0
2016-10-02T00:28:30.110Z,0
2016-10-02T00:29:30.087Z,0
2016-10-02T00:30:30.088Z,0
2016-10-02T00:31:30.081Z,0
2016-10-02T00:32:30.079Z,0
2016-10-02T00:33:30.075Z,0
2016-10-02T00:34:30.067Z,0
2016-10-02T00:35:30.064Z,0
2016-10-02T00:36:30.067Z,0
2016-10-02T00:37:30.072Z,0
2016-10-02T00:38:30.059Z,0
2016-10-02T00:39:30.059Z,0
2016-10-02T00:40:30.042Z,0
2016-10-02T00:41:30.044Z,0
2016-10-02T00:42:30.033Z,0
2016-10-02T00:43:30.036Z,0
2016-10-02T00:44:30.051Z,0
2016-10-02T00:45:30.033Z,0
2016-10-02T00:46:30.025Z,0
2016-10-02T00:47:30.022Z,0
2016-10-02T00:48:30.014Z,0
2016-10-02T00:49:30.005Z,0
2016-10-02T00:50:30.010Z,0
2016-10-02T00:51:29.992Z,0
2016-10-02T00:52:29.999Z,0
2016-10-02T00:53:29.992Z,0
2016-10-02T00:54:29.983Z,0
2016-10-02T00:55:29.982Z,0
2016-10-02T00:56:29.971Z,0
2016-10-02T00:57:29.998Z,0
2016-10-02T00:58:29.970Z,0
2016-10-02T00:59:29.958Z,0
2016-10-02T01:01:31.421Z,0
2016-10-02T01:02:32.023Z,0
2016-10-02T01:03:31.243Z,0
2016-10-02T01:04:30.435Z,0
2016-10-02T01:05:29.936Z,0
2016-10-02T01:06:29.936Z,0
2016-10-02T01:07:29.923Z,0
2016-10-02T01:08:29.924Z,0
2016-10-02T01:09:33.718Z,0
2016-10-02T01:10:32.370Z,0
2016-10-02T01:11:30.843Z,0
2016-10-02T01:12:30.325Z,0
2016-10-02T01:13:29.909Z,0
2016-10-02T01:14:30.575Z,0
2016-10-02T01:15:29.890Z,0
2016-10-02T01:16:29.882Z,0
2016-10-02T01:17:29.879Z,0
2016-10-02T01:18:29.868Z,0
2016-10-02T01:19:29.861Z,0
2016-10-02T01:20:29.864Z,0
2016-10-02T01:21:29.850Z,0
2016-10-02T01:22:29.845Z,0
2016-10-02T01:23:29.852Z,0
2016-10-02T01:24:29.831Z,0
2016-10-02T01:25:29.840Z,0
2016-10-02T01:28:00.304Z,0
2016-10-02T01:28:30.319Z,0
2016-10-02T01:29:30.066Z,0
2016-10-02T01:30:29.904Z,0
2016-10-02T01:31:29.791Z,0
2016-10-02T01:32:29.954Z,0
2016-10-02T01:33:29.781Z,0
2016-10-02T01:34:29.788Z,0
2016-10-02T01:35:31.282Z,0
2016-10-02T01:36:31.024Z,0
2016-10-02T01:38:31.178Z,0
2016-10-02T01:39:31.061Z,0
2016-10-02T01:40:30.509Z,0
2016-10-02T01:41:29.746Z,0
2016-10-02T01:42:29.732Z,0
2016-10-02T01:43:29.738Z,0
2016-10-02T01:44:29.728Z,0
2016-10-02T01:45:29.717Z,0
2016-10-02T01:46:29.709Z,0
2016-10-02T01:47:29.713Z,0
2016-10-02T01:48:29.722Z,0
2016-10-02T01:49:29.693Z,0
2016-10-02T01:50:29.686Z,0
2016-10-02T01:51:29.692Z,0
2016-10-02T01:52:29.683Z,0
2016-10-02T01:53:29.675Z,0
2016-10-02T01:54:29.675Z,0
2016-10-02T01:55:29.662Z,0
2016-10-02T01:56:29.669Z,0
2016-10-02T01:57:29.647Z,0
2016-10-02T01:58:29.640Z,0
2016-10-02T01:59:29.639Z,0
2016-10-02T02:00:29.634Z,0
2016-10-02T02:01:29.640Z,0
2016-10-02T02:02:29.634Z,0
2016-10-02T02:03:29.611Z,0
2016-10-02T02:04:29.617Z,0
2016-10-02T02:05:29.605Z,0
2016-10-02T02:06:29.608Z,0
2016-10-02T02:07:29.597Z,0
2016-10-02T02:08:29.590Z,0
2016-10-02T02:09:29.583Z,0
2016-10-02T02:10:29.573Z,0
2016-10-02T02:11:29.558Z,0
2016-10-02T02:12:29.561Z,0
2016-10-02T02:13:29.564Z,0
2016-10-02T02:14:29.551Z,0
2016-10-02T02:15:29.549Z,0
2016-10-02T02:16:29.532Z,0
2016-10-02T02:17:29.537Z,0
2016-10-02T02:19:31.432Z,0
2016-10-02T02:20:31.918Z,0
2016-10-02T02:21:31.288Z,0
2016-10-02T02:22:30.490Z,0
2016-10-02T02:23:29.491Z,0
2016-10-02T02:24:29.628Z,0
2016-10-02T02:25:29.486Z,0
2016-10-02T02:26:29.780Z,0
2016-10-02T02:27:31.811Z,0
2016-10-02T02:28:32.417Z,0
2016-10-02T02:29:30.841Z,0
2016-10-02T02:30:30.263Z,0
2016-10-02T02:31:29.520Z,0
2016-10-02T02:32:29.438Z,0
2016-10-02T02:33:29.426Z,0
2016-10-02T02:34:29.428Z,0
2016-10-02T02:35:29.420Z,0
2016-10-02T02:36:29.413Z,0
2016-10-02T02:37:29.404Z,0
2016-10-02T02:38:29.393Z,0
2016-10-02T02:39:29.400Z,0
2016-10-02T02:40:29.391Z,0
2016-10-02T02:41:29.376Z,0
2016-10-02T02:42:29.379Z,0
2016-10-02T02:43:29.378Z,0
2016-10-02T02:44:29.353Z,0
2016-10-02T02:45:29.361Z,0
2016-10-02T02:46:29.350Z,0
2016-10-02T02:47:29.331Z,0
2016-10-02T02:48:29.328Z,0
2016-10-02T02:49:29.351Z,0
2016-10-02T02:50:29.319Z,0
2016-10-02T02:51:29.315Z,0
2016-10-02T02:52:29.304Z,0
2016-10-02T02:53:29.302Z,0
2016-10-02T02:54:29.292Z,0
2016-10-02T02:55:29.286Z,0
2016-10-02T02:56:29.284Z,0
2016-10-02T02:57:29.581Z,0
2016-10-02T02:58:29.275Z,0
2016-10-02T02:59:29.263Z,0
2016-10-02T03:00:29.259Z,0
2016-10-02T03:01:29.252Z,0
2016-10-02T03:02:29.543Z,0
2016-10-02T03:03:29.231Z,0
2016-10-02T03:04:29.228Z,0
2016-10-02T03:05:29.233Z,0
2016-10-02T03:06:29.215Z,0
2016-10-02T03:07:29.221Z,0
2016-10-02T03:08:29.202Z,0
2016-10-02T03:09:29.203Z,0
2016-10-02T03:10:29.195Z,0
2016-10-02T03:11:29.182Z,0
2016-10-02T03:12:29.177Z,0
2016-10-02T03:13:29.176Z,0
2016-10-02T03:14:29.168Z,0
2016-10-02T03:15:29.158Z,0
2016-10-02T03:16:29.156Z,0
2016-10-02T03:17:29.166Z,0
2016-10-02T03:18:29.142Z,0
2016-10-02T03:19:29.140Z,0
2016-10-02T03:20:29.121Z,0
2016-10-02T03:21:29.113Z,0
2016-10-02T03:22:29.108Z,0
2016-10-02T03:23:29.108Z,0
2016-10-02T03:24:29.097Z,0
2016-10-02T03:25:29.083Z,0
2016-10-02T03:26:29.104Z,0
2016-10-02T03:27:29.071Z,0
2016-10-02T03:28:29.378Z,0
2016-10-02T03:29:29.067Z,0
2016-10-02T03:30:29.053Z,0
2016-10-02T03:31:29.055Z,0
2016-10-02T03:32:29.045Z,0
2016-10-02T03:33:29.039Z,0
2016-10-02T03:34:29.037Z,0
2016-10-02T03:35:29.018Z,0
2016-10-02T03:36:29.012Z,0
2016-10-02T03:37:29.018Z,0
2016-10-02T03:38:28.997Z,0
2016-10-02T03:39:29.001Z,0
2016-10-02T03:40:28.993Z,0
2016-10-02T03:41:28.984Z,0
2016-10-02T03:42:28.981Z,0
2016-10-02T03:43:28.965Z,0
2016-10-02T03:44:30.912Z,0
2016-10-02T03:45:30.707Z,0
2016-10-02T03:47:43.896Z,0
2016-10-02T03:48:28.930Z,0
2016-10-02T03:49:30.069Z,0
2016-10-02T03:50:28.915Z,0
2016-10-02T03:51:28.910Z,0
2016-10-02T03:52:28.893Z,0
2016-10-02T03:53:44.962Z,0
2016-10-02T03:54:44.063Z,0
2016-10-02T03:55:30.133Z,0
2016-10-02T03:56:29.386Z,0
2016-10-02T03:57:29.617Z,0
2016-10-02T03:58:28.868Z,0
2016-10-02T03:59:29.808Z,0
2016-10-02T04:00:28.855Z,0
2016-10-02T04:01:28.854Z,0
2016-10-02T04:02:28.833Z,0
2016-10-02T04:03:28.833Z,0
2016-10-02T04:04:28.819Z,0
2016-10-02T04:05:28.819Z,0
2016-10-02T04:06:28.819Z,0
2016-10-02T04:07:28.801Z,0
2016-10-02T04:08:28.812Z,0
2016-10-02T04:09:28.786Z,0
2016-10-02T04:10:28.784Z,0
2016-10-02T04:11:28.783Z,0
2016-10-02T04:12:28.767Z,0
2016-10-02T04:13:28.752Z,0
2016-10-02T04:14:29.054Z,0
2016-10-02T04:15:28.741Z,0
2016-10-02T04:16:29.041Z,0
2016-10-02T04:17:28.724Z,0
2016-10-02T04:18:28.726Z,0
2016-10-02T04:19:28.709Z,0
2016-10-02T04:20:28.715Z,0
2016-10-02T04:21:28.701Z,0
2016-10-02T04:22:28.702Z,0
2016-10-02T04:23:28.680Z,0
2016-10-02T04:24:28.679Z,0
2016-10-02T04:25:28.669Z,0
2016-10-02T04:26:28.671Z,0
2016-10-02T04:27:28.676Z,0
2016-10-02T04:28:28.657Z,0
2016-10-02T04:29:28.651Z,0
2016-10-02T04:30:28.638Z,0
2016-10-02T04:31:28.641Z,0
2016-10-02T04:32:28.625Z,0
2016-10-02T04:33:28.619Z,0
2016-10-02T04:34:28.606Z,0
2016-10-02T04:35:28.626Z,0
2016-10-02T04:36:30.243Z,0
2016-10-02T04:37:32.448Z,0
2016-10-02T04:38:29.599Z,0
2016-10-02T04:39:30.114Z,0
2016-10-02T04:40:29.301Z,0
2016-10-02T04:41:28.557Z,0
2016-10-02T04:42:28.546Z,0
2016-10-02T04:43:28.543Z,0
2016-10-02T04:44:28.534Z,0
2016-10-02T04:46:30.628Z,0
2016-10-02T04:47:31.263Z,0
2016-10-02T04:48:28.568Z,0
2016-10-02T04:49:43.414Z,0
2016-10-02T04:50:29.072Z,0
2016-10-02T04:51:28.487Z,0
2016-10-02T04:52:28.489Z,0
2016-10-02T04:53:28.472Z,0
2016-10-02T04:54:28.469Z,0
2016-10-02T04:55:28.454Z,0
2016-10-02T04:56:28.452Z,0
2016-10-02T04:57:28.445Z,0
2016-10-02T04:58:28.446Z,0
2016-10-02T04:59:28.434Z,5
2016-10-02T05:00:28.427Z,5
2016-10-02T05:01:28.411Z,5
2016-10-02T05:02:29.358Z,5
2016-10-02T05:03:29.455Z,5
2016-10-02T05:04:29.043Z,5
2016-10-02T05:05:43.350Z,10
2016-10-02T05:06:29.532Z,10
2016-10-02T05:07:29.270Z,10
2016-10-02T05:08:28.370Z,10
2016-10-02T05:09:28.454Z,10
2016-10-02T05:10:28.374Z,15
2016-10-02T05:11:44.457Z,15
2016-10-02T05:12:28.634Z,15
2016-10-02T05:13:30.231Z,20
2016-10-02T05:14:28.525Z,20
2016-10-02T05:15:28.659Z,20
2016-10-02T05:16:28.307Z,25
2016-10-02T05:17:28.311Z,25
2016-10-02T05:18:28.302Z,25
2016-10-02T05:19:28.282Z,30
2016-10-02T05:20:28.276Z,30
2016-10-02T05:21:28.264Z,30
2016-10-02T05:22:28.273Z,35
2016-10-02T05:23:28.247Z,35
2016-10-02T05:24:28.249Z,40
2016-10-02T05:25:28.237Z,40
2016-10-02T05:26:28.238Z,40
2016-10-02T05:27:28.229Z,45
2016-10-02T05:28:28.227Z,45
2016-10-02T05:29:28.211Z,50
2016-10-02T05:30:28.209Z,55
2016-10-02T05:31:28.209Z,55
2016-10-02T05:32:28.196Z,55
2016-10-02T05:33:28.187Z,65
2016-10-02T05:34:28.174Z,70
2016-10-02T05:35:28.175Z,70
2016-10-02T05:36:28.169Z,75
2016-10-02T05:37:28.159Z,80
2016-10-02T05:38:28.160Z,85
2016-10-02T05:39:28.154Z,85
2016-10-02T05:40:28.134Z,90
2016-10-02T05:41:28.131Z,95
2016-10-02T05:42:28.116Z,100
2016-10-02T05:43:28.119Z,105
2016-10-02T05:44:28.135Z,105
2016-10-02T05:45:28.108Z,110
2016-10-02T05:46:28.091Z,115
2016-10-02T05:47:28.082Z,120
2016-10-02T05:48:28.074Z,125
2016-10-02T05:49:28.074Z,125
2016-10-02T05:50:28.068Z,130
2016-10-02T05:51:28.060Z,135
2016-10-02T05:52:28.052Z,145
2016-10-02T05:53:28.053Z,145
2016-10-02T05:54:29.734Z,150
2016-10-02T05:55:30.662Z,155
2016-10-02T05:56:31.343Z,160
2016-10-02T05:57:28.919Z,165
2016-10-02T05:58:28.326Z,170
2016-10-02T05:59:29.496Z,175
2016-10-02T06:00:28.028Z,175
2016-10-02T06:01:28.017Z,180
2016-10-02T06:02:28.010Z,190
2016-10-02T06:03:30.094Z,200
2016-10-02T06:04:31.188Z,210
2016-10-02T06:05:30.023Z,215
2016-10-02T06:06:29.794Z,220
2016-10-02T06:07:29.367Z,230
2016-10-02T06:08:28.572Z,235
2016-10-02T06:09:27.972Z,240
2016-10-02T06:10:27.974Z,250
2016-10-02T06:11:27.971Z,255
2016-10-02T06:12:27.963Z,260
2016-10-02T06:13:27.960Z,275
2016-10-02T06:14:27.961Z,280
2016-10-02T06:15:27.939Z,285
2016-10-02T06:16:27.943Z,285
2016-10-02T06:17:27.934Z,290
2016-10-02T06:18:27.941Z,300
2016-10-02T06:19:27.940Z,315
2016-10-02T06:20:30.036Z,320
2016-10-02T06:21:29.030Z,320
2016-10-02T06:22:28.776Z,320
2016-10-02T06:23:27.944Z,325
2016-10-02T06:24:29.475Z,340
2016-10-02T06:25:29.167Z,345
2016-10-02T06:26:27.968Z,355
2016-10-02T06:27:27.913Z,365
2016-10-02T06:28:27.909Z,370
2016-10-02T06:29:43.182Z,380
2016-10-02T06:30:43.561Z,385
2016-10-02T06:31:42.970Z,395
2016-10-02T06:32:28.290Z,400
2016-10-02T06:33:28.451Z,415
2016-10-02T06:34:27.897Z,415
2016-10-02T06:35:28.269Z,425
2016-10-02T06:36:27.890Z,435
2016-10-02T06:37:27.892Z,440
2016-10-02T06:38:27.889Z,455
2016-10-02T06:39:27.894Z,450
2016-10-02T06:40:28.142Z,450
2016-10-02T06:41:27.885Z,460
2016-10-02T06:42:27.889Z,460
2016-10-02T06:43:27.888Z,465
2016-10-02T06:44:27.888Z,470
2016-10-02T06:45:27.888Z,475
2016-10-02T06:46:27.903Z,475
2016-10-02T06:47:28.197Z,510
2016-10-02T06:48:27.889Z,550
2016-10-02T06:49:27.886Z,575
2016-10-02T06:50:27.886Z,585
2016-10-02T06:51:27.871Z,580
2016-10-02T06:52:27.881Z,565
2016-10-02T06:53:27.885Z,570
2016-10-02T06:54:27.889Z,570
2016-10-02T06:55:27.885Z,570
2016-10-02T06:56:27.886Z,585
2016-10-02T06:57:27.881Z,585
2016-10-02T06:58:27.893Z,605
2016-10-02T06:59:27.894Z,610
2016-10-02T07:00:27.891Z,625
2016-10-02T07:01:27.890Z,640
2016-10-02T07:02:27.900Z,650
2016-10-02T07:03:27.909Z,660
2016-10-02T07:04:27.906Z,660
2016-10-02T07:05:27.898Z,680
2016-10-02T07:06:27.897Z,685
2016-10-02T07:07:27.901Z,690
2016-10-02T07:08:27.912Z,710
2016-10-02T07:09:27.916Z,715
2016-10-02T07:10:27.913Z,710
2016-10-02T07:11:27.919Z,685
2016-10-02T07:12:29.746Z,620
2016-10-02T07:13:30.823Z,590
2016-10-02T07:14:31.637Z,585
2016-10-02T07:15:29.132Z,585
2016-10-02T07:16:28.584Z,600
2016-10-02T07:17:27.941Z,600
2016-10-02T07:18:28.068Z,630
2016-10-02T07:19:28.113Z,625
2016-10-02T07:20:27.952Z,625
2016-10-02T07:21:30.615Z,630
2016-10-02T07:22:29.610Z,665
2016-10-02T07:23:30.649Z,660
2016-10-02T07:24:28.277Z,670
2016-10-02T07:25:27.958Z,700
2016-10-02T07:26:29.193Z,730
2016-10-02T07:27:27.963Z,765
2016-10-02T07:28:28.101Z,780
2016-10-02T07:29:27.993Z,795
2016-10-02T07:30:27.977Z,825
2016-10-02T07:31:27.991Z,810
2016-10-02T07:32:27.973Z,765
2016-10-02T07:33:27.996Z,760
2016-10-02T07:34:27.992Z,755
2016-10-02T07:35:27.998Z,755
2016-10-02T07:36:27.992Z,755
2016-10-02T07:37:28.005Z,820
2016-10-02T07:38:28.607Z,775
2016-10-02T07:39:28.915Z,795
2016-10-02T07:40:28.459Z,785
2016-10-02T07:41:43.488Z,780
2016-10-02T07:42:28.522Z,815
2016-10-02T07:43:28.426Z,695
2016-10-02T07:44:28.020Z,455
2016-10-02T07:45:28.078Z,340
2016-10-02T07:46:28.054Z,320
2016-10-02T07:47:44.060Z,305
2016-10-02T07:50:06.441Z,285
2016-10-02T07:50:51.771Z,285
2016-10-02T07:51:52.123Z,300
2016-10-02T07:52:51.234Z,325
2016-10-02T07:53:51.229Z,365
2016-10-02T07:54:51.235Z,405
2016-10-02T07:55:51.228Z,420
2016-10-02T07:56:51.232Z,415
2016-10-02T07:57:51.231Z,425
2016-10-02T07:58:51.234Z,440
2016-10-02T07:59:51.238Z,450
2016-10-02T08:00:51.237Z,445
2016-10-02T08:01:51.245Z,445
2016-10-02T08:02:51.236Z,420
2016-10-02T08:03:51.253Z,415
2016-10-02T08:04:51.238Z,425
2016-10-02T08:05:51.254Z,410
2016-10-02T08:06:51.253Z,385
2016-10-02T08:07:51.257Z,365
2016-10-02T08:08:51.252Z,355
2016-10-02T08:09:51.259Z,340
2016-10-02T08:10:51.251Z,360
2016-10-02T08:11:51.245Z,365
2016-10-02T08:12:51.246Z,395
2016-10-02T08:13:51.244Z,465
2016-10-02T08:14:51.251Z,450
2016-10-02T08:15:51.250Z,410
2016-10-02T08:16:51.239Z,440
2016-10-02T08:17:51.248Z,470
2016-10-02T08:18:51.246Z,505
2016-10-02T08:19:51.251Z,495
2016-10-02T08:20:51.243Z,495
2016-10-02T08:21:51.248Z,505
2016-10-02T08:22:51.250Z,505
2016-10-02T08:23:51.251Z,520
2016-10-02T08:24:51.252Z,525
2016-10-02T08:25:51.251Z,525
2016-10-02T08:26:51.246Z,500
2016-10-02T08:27:51.252Z,450
2016-10-02T08:28:51.243Z,435
2016-10-02T08:29:52.761Z,400
2016-10-02T08:30:54.160Z,395
2016-10-02T08:31:53.977Z,405
2016-10-02T08:32:53.579Z,415
2016-10-02T08:33:52.182Z,435
2016-10-02T08:34:51.242Z,460
2016-10-02T08:35:51.288Z,475
2016-10-02T08:36:51.248Z,485
2016-10-02T08:37:51.248Z,490
2016-10-02T08:39:55.861Z,520
2016-10-02T08:40:53.532Z,495
2016-10-02T08:41:53.286Z,495
2016-10-02T08:42:51.911Z,465
2016-10-02T08:43:53.117Z,375
2016-10-02T08:44:51.243Z,365
2016-10-02T08:45:51.239Z,390
2016-10-02T08:46:51.246Z,430
2016-10-02T08:47:51.240Z,460
2016-10-02T08:48:51.246Z,460
2016-10-02T08:49:51.244Z,395
2016-10-02T08:50:51.248Z,405
2016-10-02T08:51:51.238Z,370
2016-10-02T08:52:51.249Z,375
2016-10-02T08:53:51.235Z,375
2016-10-02T08:54:51.251Z,390
2016-10-02T08:55:51.237Z,395
2016-10-02T08:57:07.322Z,390
2016-10-02T08:58:06.866Z,385
2016-10-02T08:59:06.907Z,365
2016-10-02T09:00:51.244Z,325
2016-10-02T09:01:51.994Z,310
2016-10-02T09:02:51.252Z,325
2016-10-02T09:03:51.234Z,345
2016-10-02T09:04:51.264Z,340
2016-10-02T09:05:53.640Z,350
2016-10-02T09:07:51.493Z,330
2016-10-02T09:09:52.989Z,300
2016-10-02T09:10:51.642Z,285
2016-10-02T09:11:51.697Z,275
2016-10-02T09:12:51.337Z,265
2016-10-02T09:13:51.247Z,260
2016-10-02T09:14:51.232Z,250
2016-10-02T09:15:51.597Z,245
2016-10-02T09:16:51.231Z,245
2016-10-02T09:17:51.252Z,255
2016-10-02T09:18:51.234Z,250
2016-10-02T09:19:51.244Z,260
2016-10-02T09:20:51.489Z,240
2016-10-02T09:21:51.538Z,235
2016-10-02T09:22:51.232Z,230
2016-10-02T09:23:51.230Z,235
2016-10-02T09:24:51.238Z,235
2016-10-02T09:25:51.528Z,235
2016-10-02T09:26:51.228Z,235
2016-10-02T09:27:51.225Z,230
2016-10-02T09:28:51.226Z,240
2016-10-02T09:29:51.223Z,230
2016-10-02T09:30:51.476Z,225
2016-10-02T09:31:51.238Z,225
2016-10-02T09:32:51.227Z,245
2016-10-02T09:33:51.215Z,235
2016-10-02T09:34:51.219Z,245
2016-10-02T09:35:51.467Z,290
2016-10-02T09:36:51.214Z,310
2016-10-02T09:37:51.212Z,270
2016-10-02T09:38:51.208Z,255
2016-10-02T09:39:51.211Z,295
2016-10-02T09:40:51.509Z,260
2016-10-02T09:41:51.206Z,240
2016-10-02T09:42:51.205Z,265
2016-10-02T09:43:51.204Z,320
2016-10-02T09:44:51.197Z,310
2016-10-02T09:45:51.456Z,285
2016-10-02T09:46:51.196Z,260
2016-10-02T09:47:52.347Z,235
2016-10-02T09:48:53.887Z,220
2016-10-02T09:49:55.165Z,220
2016-10-02T09:50:51.907Z,230
2016-10-02T09:51:51.280Z,240
2016-10-02T09:52:51.820Z,255
2016-10-02T09:53:52.136Z,255
2016-10-02T09:54:51.188Z,260
2016-10-02T09:55:51.485Z,305
2016-10-02T09:56:51.369Z,335
2016-10-02T09:57:52.846Z,425
2016-10-02T09:58:54.639Z,375
2016-10-02T09:59:54.431Z,445
2016-10-02T10:00:53.364Z,465
2016-10-02T10:01:51.670Z,435
2016-10-02T10:02:52.061Z,400
2016-10-02T10:03:51.175Z,415
2016-10-02T10:04:51.170Z,445
2016-10-02T10:05:51.173Z,390
2016-10-02T10:06:51.423Z,385
2016-10-02T10:07:51.172Z,425
2016-10-02T10:08:51.167Z,450
2016-10-02T10:09:51.163Z,455
2016-10-02T10:10:51.157Z,385
2016-10-02T10:11:51.407Z,400
2016-10-02T10:12:51.160Z,315
2016-10-02T10:13:51.162Z,340
2016-10-02T10:14:52.212Z,380
2016-10-02T10:15:51.762Z,435
2016-10-02T10:16:52.214Z,475
2016-10-02T10:18:52.108Z,475
2016-10-02T10:19:51.161Z,500
2016-10-02T10:20:51.156Z,475
2016-10-02T10:21:51.393Z,475
2016-10-02T10:22:51.163Z,400
2016-10-02T10:24:07.024Z,405
2016-10-02T10:25:06.771Z,410
2016-10-02T10:25:52.147Z,440
2016-10-02T10:27:06.419Z,475
2016-10-02T10:27:51.614Z,440
2016-10-02T10:28:51.155Z,355
2016-10-02T10:29:51.188Z,345
2016-10-02T10:30:51.161Z,315
2016-10-02T10:31:51.415Z,345
2016-10-02T10:32:51.155Z,395
2016-10-02T10:33:51.159Z,395
2016-10-02T10:34:51.155Z,340
2016-10-02T10:35:51.157Z,340
2016-10-02T10:36:51.412Z,340
2016-10-02T10:37:51.229Z,345
2016-10-02T10:38:51.162Z,365
2016-10-02T10:39:51.162Z,370
2016-10-02T10:40:51.155Z,335
2016-10-02T10:41:51.402Z,345
2016-10-02T10:42:51.166Z,395
2016-10-02T10:43:51.152Z,425
2016-10-02T10:44:51.162Z,455
2016-10-02T10:45:51.166Z,450
2016-10-02T10:46:51.473Z,420
2016-10-02T10:47:51.154Z,425
2016-10-02T10:48:51.160Z,390
2016-10-02T10:49:51.163Z,415
2016-10-02T10:50:51.165Z,440
2016-10-02T10:51:51.419Z,505
2016-10-02T10:52:51.169Z,565
2016-10-02T10:53:51.166Z,520
2016-10-02T10:54:51.164Z,495
2016-10-02T10:55:51.187Z,465
2016-10-02T10:56:51.470Z,485
2016-10-02T10:57:51.166Z,480
2016-10-02T10:58:51.172Z,470
2016-10-02T10:59:51.169Z,480
2016-10-02T11:00:51.172Z,480
2016-10-02T11:01:51.427Z,455
2016-10-02T11:02:51.175Z,435
2016-10-02T11:03:51.179Z,465
2016-10-02T11:04:51.167Z,470
2016-10-02T11:05:52.740Z,435
2016-10-02T11:06:53.141Z,375
2016-10-02T11:07:53.102Z,375
2016-10-02T11:08:53.003Z,380
2016-10-02T11:09:52.690Z,400
2016-10-02T11:10:51.213Z,390
2016-10-02T11:11:51.528Z,365
2016-10-02T11:12:51.186Z,345
2016-10-02T11:13:51.190Z,310
2016-10-02T11:14:52.719Z,285
2016-10-02T11:15:54.523Z,290
2016-10-02T11:16:52.740Z,300
2016-10-02T11:17:52.715Z,315
2016-10-02T11:18:52.442Z,305
2016-10-02T11:19:51.192Z,285
2016-10-02T11:20:51.390Z,265
2016-10-02T11:21:51.189Z,295
2016-10-02T11:22:51.196Z,320
2016-10-02T11:23:51.189Z,355
2016-10-02T11:24:51.198Z,355
2016-10-02T11:25:51.201Z,315
2016-10-02T11:26:51.489Z,270
2016-10-02T11:27:51.202Z,245
2016-10-02T11:28:51.199Z,240
2016-10-02T11:29:51.206Z,230
2016-10-02T11:30:51.200Z,230
2016-10-02T11:31:51.201Z,245
2016-10-02T11:32:51.883Z,270
2016-10-02T11:34:07.028Z,280
2016-10-02T11:35:51.495Z,275
2016-10-02T11:36:51.199Z,290
2016-10-02T11:37:51.741Z,280
2016-10-02T11:38:51.203Z,330
2016-10-02T11:39:51.197Z,380
2016-10-02T11:40:51.201Z,325
2016-10-02T11:42:06.566Z,260
2016-10-02T11:42:53.064Z,280
2016-10-02T11:44:07.115Z,250
2016-10-02T11:44:51.808Z,255
2016-10-02T11:45:51.237Z,290
2016-10-02T11:46:51.557Z,275
2016-10-02T11:47:51.195Z,250
2016-10-02T11:48:51.211Z,255
2016-10-02T11:49:51.189Z,300
2016-10-02T11:50:51.197Z,365
2016-10-02T11:51:51.205Z,435
2016-10-02T11:52:51.198Z,310
2016-10-02T11:53:51.202Z,275
2016-10-02T11:54:51.200Z,355
2016-10-02T11:55:51.215Z,410
2016-10-02T11:56:51.195Z,315
2016-10-02T11:57:51.193Z,305
2016-10-02T11:58:51.202Z,280
2016-10-02T11:59:51.188Z,300
2016-10-02T12:00:51.198Z,295
2016-10-02T12:01:51.184Z,310
2016-10-02T12:02:51.188Z,235
2016-10-02T12:03:51.181Z,225
2016-10-02T12:04:51.184Z,305
2016-10-02T12:05:51.188Z,275
2016-10-02T12:06:51.191Z,265
2016-10-02T12:07:51.189Z,240
2016-10-02T12:08:51.212Z,225
2016-10-02T12:09:51.193Z,330
2016-10-02T12:10:51.191Z,345
2016-10-02T12:11:51.209Z,315
2016-10-02T12:12:51.193Z,315
2016-10-02T12:13:51.184Z,275
2016-10-02T12:14:51.492Z,265
2016-10-02T12:15:51.185Z,285
2016-10-02T12:16:51.191Z,340
2016-10-02T12:17:51.203Z,370
2016-10-02T12:18:51.189Z,390
2016-10-02T12:19:51.181Z,340
2016-10-02T12:20:51.183Z,290
2016-10-02T12:21:51.189Z,295
2016-10-02T12:22:51.196Z,305
2016-10-02T12:24:54.387Z,415
2016-10-02T12:25:52.631Z,425
2016-10-02T12:26:52.155Z,365
2016-10-02T12:27:51.188Z,345
2016-10-02T12:28:52.518Z,320
2016-10-02T12:29:51.188Z,295
2016-10-02T12:30:51.189Z,270
2016-10-02T12:31:51.188Z,235
2016-10-02T12:32:52.125Z,215
2016-10-02T12:34:53.943Z,200
2016-10-02T12:35:51.878Z,270
2016-10-02T12:36:53.660Z,370
2016-10-02T12:37:52.219Z,420
2016-10-02T12:38:51.198Z,435
2016-10-02T12:39:51.187Z,425
2016-10-02T12:40:51.188Z,410
2016-10-02T12:41:51.193Z,390
2016-10-02T12:42:51.193Z,390
2016-10-02T12:43:51.190Z,400
2016-10-02T12:44:51.197Z,400
2016-10-02T12:45:51.197Z,390
2016-10-02T12:46:51.198Z,370
2016-10-02T12:47:51.193Z,335
2016-10-02T12:48:51.194Z,345
2016-10-02T12:49:51.209Z,365
2016-10-02T12:53:06.310Z,300
2016-10-02T12:54:06.218Z,270
2016-10-02T12:55:06.115Z,265
2016-10-02T12:55:51.247Z,270
2016-10-02T12:56:51.194Z,260
2016-10-02T12:57:51.209Z,210
2016-10-02T12:58:51.203Z,200
2016-10-02T12:59:52.904Z,210
2016-10-02T13:02:06.368Z,180
2016-10-02T13:02:51.960Z,165
2016-10-02T13:03:52.505Z,155
2016-10-02T13:04:51.501Z,155
2016-10-02T13:05:51.555Z,185
2016-10-02T13:06:51.362Z,215
2016-10-02T13:07:51.205Z,255
2016-10-02T13:08:51.222Z,305
2016-10-02T13:09:51.212Z,325
2016-10-02T13:10:51.209Z,305
2016-10-02T13:11:51.207Z,295
2016-10-02T13:12:51.211Z,285
2016-10-02T13:13:51.212Z,245
2016-10-02T13:14:51.210Z,230
2016-10-02T13:15:51.215Z,230
2016-10-02T13:16:51.205Z,230
2016-10-02T13:17:51.226Z,235
2016-10-02T13:18:51.218Z,235
2016-10-02T13:19:51.210Z,250
2016-10-02T13:20:51.220Z,255
2016-10-02T13:21:51.220Z,275
2016-10-02T13:22:51.216Z,325
2016-10-02T13:23:51.206Z,310
2016-10-02T13:24:51.214Z,305
2016-10-02T13:25:51.214Z,305
2016-10-02T13:26:51.207Z,315
2016-10-02T13:27:51.205Z,335
2016-10-02T13:28:51.223Z,360
2016-10-02T13:29:51.218Z,375
2016-10-02T13:30:51.216Z,375
2016-10-02T13:31:51.213Z,340
2016-10-02T13:32:51.217Z,320
2016-10-02T13:33:51.213Z,315
2016-10-02T13:34:51.205Z,320
2016-10-02T13:35:51.215Z,320
2016-10-02T13:36:51.206Z,310
2016-10-02T13:37:51.212Z,300
2016-10-02T13:38:51.215Z,295
2016-10-02T13:39:51.215Z,285
2016-10-02T13:40:51.219Z,280
2016-10-02T13:41:51.217Z,280
2016-10-02T13:42:55.666Z,300
2016-10-02T13:43:53.517Z,325
2016-10-02T13:44:53.434Z,335
2016-10-02T13:45:52.255Z,320
2016-10-02T13:46:51.208Z,305
2016-10-02T13:47:51.486Z,295
2016-10-02T13:48:51.464Z,300
2016-10-02T13:49:51.215Z,285
2016-10-02T13:50:51.217Z,265
2016-10-02T13:52:52.881Z,225
2016-10-02T13:53:52.982Z,210
2016-10-02T13:54:51.868Z,200
2016-10-02T13:55:51.215Z,220
2016-10-02T13:56:51.255Z,205
2016-10-02T13:57:51.265Z,185
2016-10-02T13:58:51.220Z,175
2016-10-02T13:59:51.219Z,175
2016-10-02T14:00:51.216Z,185
2016-10-02T14:01:51.217Z,200
2016-10-02T14:02:51.218Z,210
2016-10-02T14:03:51.217Z,215
2016-10-02T14:04:51.223Z,220
2016-10-02T14:05:51.212Z,225
2016-10-02T14:06:51.209Z,215
2016-10-02T14:07:51.210Z,215
2016-10-02T14:08:51.965Z,210
2016-10-02T14:09:51.616Z,200
2016-10-02T14:11:07.031Z,180
2016-10-02T14:11:51.577Z,165
2016-10-02T14:12:51.513Z,155
2016-10-02T14:13:52.514Z,150
2016-10-02T14:14:51.204Z,155
2016-10-02T14:15:51.208Z,155
2016-10-02T14:16:51.212Z,165
2016-10-02T14:18:08.729Z,185
2016-10-02T14:19:36.503Z,270
2016-10-02T14:19:51.562Z,280
2016-10-02T14:21:06.118Z,330
2016-10-02T14:21:53.268Z,320
2016-10-02T14:22:51.807Z,320
2016-10-02T14:23:51.214Z,300
2016-10-02T14:24:51.205Z,265
2016-10-02T14:25:51.206Z,235
2016-10-02T14:26:51.201Z,215
2016-10-02T14:27:51.505Z,210
2016-10-02T14:28:51.204Z,200